Time;durP1;ratioP1;P1;durP2;ratioP2;P2;SDS_P1;SDS_P2;PMS_P1;PMS_P2;Temp;Humidity;BMP_temperature;BMP_pressure;BME280_temperature;BME280_humidity;BME280_pressure;Samples;Min_cycle;Max_cycle;Signal;HPM_P1;HPM_P2
2022/06/13 00:01:55;;;;;;;;;;;;;;;15.18;80.51;97358.35;109628;1250;71518;-70
2022/06/13 00:04:24;;;;;;;;;;;;;;;15.13;78.75;97356.39;109958;1250;68604;-66
2022/06/13 00:06:54;;;;;;;;;;;;;;;15.08;80.77;97357.34;109819;1250;68665;-66
2022/06/13 00:09:23;;;;;;;;;;;;;;;15.06;78.99;97362.33;109893;1250;60549;-67
2022/06/13 00:11:54;;;;;;;;;;;;;;;15.01;77.53;97365.17;109899;1250;60520;-67
2022/06/13 00:14:23;;;;;;;;;;;;;;;14.97;80.62;97369.08;109952;1250;71572;-66
2022/06/13 00:16:55;;;;;;;;;;;;;;;14.91;81.73;97366.84;109895;1250;67624;-65
2022/06/13 00:19:24;;;;;;;;;;;;;;;14.85;81.66;97368.61;110303;1250;68491;-70
2022/06/13 00:21:59;;;;;;;;;;;;;;;14.80;81.28;97366.07;110026;1250;60572;-72
2022/06/13 00:24:28;;;;;;;;;;;;;;;14.75;81.88;97365.92;109928;1250;60515;-71
2022/06/13 00:26:57;;;;;;;;;;;;;;;14.69;82.26;97366.34;109959;1250;72338;-70
2022/06/13 00:29:27;;;;;;;;;;;;;;;14.65;82.32;97368.33;109959;1250;67845;-72
2022/06/13 00:31:58;;;;;;;;;;;;;;;14.61;80.29;97367.27;109970;1250;68847;-72
2022/06/13 00:34:28;;;;;;;;;;;;;;;14.56;80.24;97367.52;109947;1250;60563;-66
2022/06/13 00:36:57;;;;;;;;;;;;;;;14.52;82.02;97367.58;109728;1250;60529;-71
2022/06/13 00:39:27;;;;;;;;;;;;;;;14.49;83.04;97365.69;109836;1250;71426;-72
2022/06/13 00:41:56;;;;;;;;;;;;;;;14.47;81.13;97362.16;109738;1250;68601;-72
2022/06/13 00:44:30;;;;;;;;;;;;;;;14.44;79.94;97360.31;109754;1250;69250;-69
2022/06/13 00:47:00;;;;;;;;;;;;;;;14.42;81.61;97364.23;109724;1250;60580;-71
2022/06/13 00:49:43;;;;;;;;;;;;;;;14.38;82.08;97364.39;109872;1250;60505;-68
2022/06/13 00:52:17;;;;;;;;;;;;;;;14.34;83.28;97360.22;109737;1250;71574;-71
2022/06/13 00:54:49;;;;;;;;;;;;;;;14.31;83.13;97357.52;109702;1250;68586;-72
2022/06/13 00:57:20;;;;;;;;;;;;;;;14.26;82.41;97352.64;109840;1250;69715;-71
2022/06/13 00:59:53;;;;;;;;;;;;;;;14.21;82.49;97349.39;109892;1250;60540;-72
2022/06/13 01:02:24;;;;;;;;;;;;;;;14.16;83.84;97354.59;109761;1250;60540;-67
2022/06/13 01:04:55;;;;;;;;;;;;;;;14.11;83.09;97355.72;109636;1250;72479;-71
2022/06/13 01:07:27;;;;;;;;;;;;;;;14.05;84.34;97354.64;110230;1250;67942;-68
2022/06/13 01:12:45;;;;;;;;;;;;;;;13.99;85.06;97354.27;109946;1250;60493;-65
2022/06/13 01:15:26;;;;;;;;;;;;;;;14.00;85.33;97353.20;109982;1249;60495;-72
2022/06/13 01:17:59;;;;;;;;;;;;;;;14.02;85.84;97355.14;109980;1250;72338;-71
2022/06/13 01:20:31;;;;;;;;;;;;;;;14.03;85.43;97351.57;109935;1250;68073;-66
2022/06/13 01:23:05;;;;;;;;;;;;;;;14.03;85.04;97350.69;109892;1250;68464;-70
2022/06/13 01:26:07;;;;;;;;;;;;;;;14.03;83.78;97345.90;109875;1250;60556;-71
2022/06/13 01:28:48;;;;;;;;;;;;;;;14.04;84.82;97346.37;109287;1257;60564;-71
2022/06/13 01:31:36;;;;;;;;;;;;;;;14.01;81.10;97343.47;109301;1257;72345;-69
2022/06/13 01:34:31;;;;;;;;;;;;;;;13.99;84.43;97343.84;109239;1256;68598;-67
2022/06/13 01:37:07;;;;;;;;;;;;;;;13.95;85.23;97343.61;109255;1257;68639;-65
2022/06/13 01:39:57;;;;;;;;;;;;;;;13.93;85.40;97339.80;109293;1257;60567;-69
2022/06/13 01:42:46;;;;;;;;;;;;;;;13.92;84.14;97334.84;109300;1257;60495;-70
2022/06/13 01:45:21;;;;;;;;;;;;;;;13.88;80.36;97330.23;109253;1257;72336;-70
2022/06/13 01:48:15;;;;;;;;;;;;;;;13.84;79.81;97332.73;109299;1257;68328;-70
2022/06/13 01:50:53;;;;;;;;;;;;;;;13.77;79.87;97342.05;108984;1257;69495;-66
2022/06/13 01:53:37;;;;;;;;;;;;;;;13.71;80.34;97340.30;109355;1257;60493;-68
2022/06/13 01:56:11;;;;;;;;;;;;;;;13.67;85.31;97338.04;109629;1257;60541;-67
2022/06/13 01:59:13;;;;;;;;;;;;;;;13.63;86.30;97337.27;109283;1257;72473;-67
2022/06/13 02:01:44;;;;;;;;;;;;;;;13.59;87.25;97332.38;108894;1257;67835;-72
2022/06/13 02:04:24;;;;;;;;;;;;;;;13.56;87.48;97330.53;109478;1250;69425;-71
2022/06/13 02:07:08;;;;;;;;;;;;;;;13.55;87.83;97325.96;109727;1250;60540;-73
2022/06/13 02:09:52;;;;;;;;;;;;;;;13.54;87.75;97327.11;109977;1250;60504;-71
2022/06/13 02:12:24;;;;;;;;;;;;;;;13.51;87.28;97325.92;109729;1250;72273;-66
2022/06/13 02:15:12;;;;;;;;;;;;;;;13.46;87.36;97325.46;109883;1250;67796;-72
2022/06/13 02:18:03;;;;;;;;;;;;;;;13.41;87.73;97321.69;109942;1250;68514;-67
2022/06/13 02:20:42;;;;;;;;;;;;;;;13.38;86.94;97317.73;109945;1250;60590;-71
2022/06/13 02:23:16;;;;;;;;;;;;;;;13.37;88.20;97315.23;109902;1250;60565;-71
2022/06/13 02:25:56;;;;;;;;;;;;;;;13.37;87.76;97314.50;109900;1250;71569;-69
2022/06/13 02:28:33;;;;;;;;;;;;;;;13.39;87.47;97313.46;109920;1250;67838;-73
2022/06/13 02:31:07;;;;;;;;;;;;;;;13.41;87.57;97312.83;109910;1249;68513;-69
2022/06/13 02:33:47;;;;;;;;;;;;;;;13.41;84.75;97311.58;109857;1250;60595;-69
2022/06/13 02:36:24;;;;;;;;;;;;;;;13.40;83.27;97318.27;109973;1250;60504;-72
2022/06/13 02:39:00;;;;;;;;;;;;;;;13.41;85.14;97320.52;109960;1250;71425;-67
2022/06/13 02:41:37;;;;;;;;;;;;;;;13.39;88.27;97322.36;110009;1251;68409;-72
2022/06/13 02:44:16;;;;;;;;;;;;;;;13.38;89.06;97317.41;109841;1252;69343;-70
2022/06/13 02:46:54;;;;;;;;;;;;;;;13.38;88.07;97320.36;109728;1253;60574;-68
2022/06/13 02:49:27;;;;;;;;;;;;;;;13.40;87.81;97319.55;109693;1252;60569;-69
2022/06/13 02:52:16;;;;;;;;;;;;;;;13.41;88.71;97319.64;109738;1252;72350;-71
2022/06/13 02:54:55;;;;;;;;;;;;;;;13.43;89.02;97322.59;109721;1253;68483;-72
2022/06/13 02:57:37;;;;;;;;;;;;;;;13.46;89.14;97328.09;109700;1253;68845;-70
2022/06/13 03:00:10;;;;;;;;;;;;;;;13.49;88.58;97328.87;109716;1253;60507;-73
2022/06/13 03:02:46;;;;;;;;;;;;;;;13.52;88.65;97326.01;109741;1253;60503;-73
2022/06/13 03:05:39;;;;;;;;;;;;;;;13.55;89.18;97325.42;109756;1252;72346;-72
2022/06/13 03:08:09;;;;;;;;;;;;;;;13.57;89.27;97330.84;109685;1252;67696;-69
2022/06/13 03:10:50;;;;;;;;;;;;;;;13.58;88.74;97338.05;109763;1253;69498;-69
2022/06/13 03:13:30;;;;;;;;;;;;;;;13.60;88.58;97343.55;109758;1253;60532;-72
2022/06/13 03:16:03;;;;;;;;;;;;;;;13.62;88.78;97342.27;109765;1252;60419;-72
2022/06/13 03:18:37;;;;;;;;;;;;;;;13.67;88.68;97341.17;109745;1253;72393;-71
2022/06/13 03:21:13;;;;;;;;;;;;;;;13.72;87.93;97340.55;109738;1253;67917;-69
2022/06/13 03:23:48;;;;;;;;;;;;;;;13.78;88.23;97339.68;109676;1252;69406;-71
2022/06/13 03:26:22;;;;;;;;;;;;;;;13.85;88.76;97338.75;109764;1253;60590;-72
2022/06/13 03:28:57;;;;;;;;;;;;;;;13.91;88.42;97334.35;109879;1252;60969;-72
2022/06/13 03:31:32;;;;;;;;;;;;;;;13.98;85.68;97329.15;109939;1251;71392;-71
2022/06/13 03:34:05;;;;;;;;;;;;;;;14.08;86.42;97330.74;109735;1253;68166;-65
2022/06/13 03:36:41;;;;;;;;;;;;;;;14.13;87.45;97331.53;109690;1253;69500;-66
2022/06/13 03:39:30;;;;;;;;;;;;;;;14.11;86.58;97334.71;109685;1253;60594;-72
2022/06/13 03:42:23;;;;;;;;;;;;;;;14.14;86.35;97332.52;109751;1250;60502;-71
2022/06/13 03:45:11;;;;;;;;;;;;;;;14.18;86.94;97335.45;109886;1250;72489;-71
2022/06/13 03:47:44;;;;;;;;;;;;;;;14.25;87.51;97335.70;109694;1250;68695;-69
2022/06/13 03:50:17;;;;;;;;;;;;;;;14.34;87.52;97338.95;109915;1250;69523;-66
2022/06/13 03:52:49;;;;;;;;;;;;;;;14.45;87.69;97342.73;109900;1250;60503;-65
2022/06/13 03:55:27;;;;;;;;;;;;;;;14.54;87.31;97336.69;109952;1250;60496;-65
2022/06/13 03:58:15;;;;;;;;;;;;;;;14.65;87.11;97335.88;109864;1250;70934;-66
2022/06/13 04:00:52;;;;;;;;;;;;;;;14.77;86.58;97334.73;110024;1250;67917;-67
2022/06/13 04:03:23;;;;;;;;;;;;;;;14.90;86.90;97340.05;109647;1251;69415;-65
2022/06/13 04:05:58;;;;;;;;;;;;;;;15.02;86.29;97340.86;109957;1250;60459;-66
2022/06/13 04:08:30;;;;;;;;;;;;;;;15.17;86.56;97339.48;109679;1250;60526;-73
2022/06/13 04:11:02;;;;;;;;;;;;;;;15.31;85.75;97335.05;109927;1250;70473;-72
2022/06/13 04:13:38;;;;;;;;;;;;;;;15.47;85.37;97337.96;109903;1250;67761;-70
2022/06/13 04:16:26;;;;;;;;;;;;;;;15.62;85.69;97339.86;109945;1250;68456;-71
2022/06/13 04:18:57;;;;;;;;;;;;;;;15.80;86.01;97338.21;110082;1250;60459;-68
2022/06/13 04:21:46;;;;;;;;;;;;;;;15.94;86.15;97339.14;109746;1250;60503;-67
2022/06/13 04:24:19;;;;;;;;;;;;;;;16.09;84.50;97343.52;109921;1250;72346;-71
2022/06/13 04:26:54;;;;;;;;;;;;;;;16.21;82.98;97345.54;109876;1250;68596;-73
2022/06/13 04:29:23;;;;;;;;;;;;;;;16.29;82.03;97345.60;109893;1250;69431;-70
2022/06/13 04:31:56;;;;;;;;;;;;;;;16.38;82.03;97346.13;109693;1250;60547;-73
2022/06/13 04:34:28;;;;;;;;;;;;;;;16.51;81.83;97346.13;109923;1250;60486;-71
2022/06/13 04:36:57;;;;;;;;;;;;;;;16.64;81.29;97345.02;109918;1250;72415;-72
2022/06/13 04:39:29;;;;;;;;;;;;;;;16.76;80.79;97349.48;109908;1250;67764;-69
2022/06/13 04:41:59;;;;;;;;;;;;;;;16.85;80.63;97346.52;109931;1250;69227;-72
2022/06/13 04:44:29;;;;;;;;;;;;;;;16.95;80.37;97350.60;109909;1250;60469;-71
2022/06/13 04:46:59;;;;;;;;;;;;;;;17.06;80.03;97351.55;109868;1250;60479;-70
2022/06/13 04:49:36;;;;;;;;;;;;;;;17.16;79.39;97355.52;109875;1250;71960;-72
2022/06/13 04:52:17;;;;;;;;;;;;;;;17.24;79.02;97356.42;109791;1250;67767;-69
2022/06/13 04:55:01;;;;;;;;;;;;;;;17.36;78.61;97357.73;109833;1250;69476;-68
2022/06/13 04:57:30;;;;;;;;;;;;;;;17.51;78.23;97362.89;109907;1250;60498;-70
2022/06/13 04:59:59;;;;;;;;;;;;;;;17.65;77.90;97367.95;109892;1250;60494;-70
2022/06/13 05:02:35;;;;;;;;;;;;;;;17.81;77.87;97367.41;109723;1253;72235;-72
2022/06/13 05:05:08;;;;;;;;;;;;;;;18.05;78.13;97361.77;110429;1250;66935;-70
2022/06/13 05:07:37;;;;;;;;;;;;;;;18.33;77.75;97351.20;109909;1250;68688;-72
2022/06/13 05:10:12;;;;;;;;;;;;;;;18.66;76.97;97350.52;109896;1250;60591;-70
2022/06/13 05:12:43;;;;;;;;;;;;;;;19.06;72.91;97351.41;109704;1253;60524;-71
2022/06/13 05:15:18;;;;;;;;;;;;;;;19.51;72.90;97349.63;109889;1250;72374;-72
2022/06/13 05:18:05;;;;;;;;;;;;;;;20.05;73.64;97348.77;109902;1250;68692;-72
2022/06/13 05:20:53;;;;;;;;;;;;;;;20.61;71.19;97345.27;109913;1250;68314;-72
2022/06/13 05:23:22;;;;;;;;;;;;;;;21.02;68.51;97342.11;109856;1250;60631;-75
2022/06/13 05:25:53;;;;;;;;;;;;;;;21.22;64.77;97343.38;109824;1250;60500;-72
2022/06/13 05:28:23;;;;;;;;;;;;;;;21.35;65.37;97342.74;109865;1250;71231;-71
2022/06/13 05:30:53;;;;;;;;;;;;;;;21.27;63.29;97339.14;109879;1250;68745;-70
2022/06/13 05:33:32;;;;;;;;;;;;;;;21.19;63.13;97339.05;109678;1250;68666;-71
2022/06/13 05:36:03;;;;;;;;;;;;;;;21.15;63.41;97335.65;109656;1251;60512;-71
2022/06/13 05:38:43;;;;;;;;;;;;;;;21.11;64.52;97337.55;109675;1250;60738;-70
2022/06/13 05:41:11;;;;;;;;;;;;;;;21.00;64.12;97329.43;109856;1250;72385;-71
2022/06/13 05:43:40;;;;;;;;;;;;;;;20.70;64.10;97319.61;109863;1251;68708;-67
2022/06/13 05:46:13;;;;;;;;;;;;;;;20.62;64.84;97326.08;109718;1250;69504;-67
2022/06/13 05:48:41;;;;;;;;;;;;;;;20.64;65.05;97325.60;109707;1252;60539;-70
2022/06/13 05:51:10;;;;;;;;;;;;;;;20.74;65.16;97328.18;110181;1250;60477;-70
2022/06/13 05:53:40;;;;;;;;;;;;;;;20.79;64.01;97325.27;110035;1250;71331;-66
2022/06/13 05:56:10;;;;;;;;;;;;;;;20.81;63.77;97327.94;109901;1250;68038;-68
2022/06/13 05:58:39;;;;;;;;;;;;;;;20.95;63.80;97329.15;109920;1250;68800;-68
2022/06/13 06:01:09;;;;;;;;;;;;;;;21.00;62.19;97328.41;109726;1253;61009;-67
2022/06/13 06:03:38;;;;;;;;;;;;;;;21.01;61.82;97327.73;109908;1250;60510;-67
2022/06/13 06:06:10;;;;;;;;;;;;;;;21.08;62.29;97328.47;109606;1253;70402;-68
2022/06/13 06:08:40;;;;;;;;;;;;;;;21.26;62.08;97331.10;109874;1250;68005;-68
2022/06/13 06:11:08;;;;;;;;;;;;;;;21.40;60.52;97327.81;109999;1250;69460;-73
2022/06/13 06:13:37;;;;;;;;;;;;;;;21.58;61.15;97329.16;109853;1250;60551;-73
2022/06/13 06:16:09;;;;;;;;;;;;;;;21.73;60.40;97327.52;109903;1250;60560;-71
2022/06/13 06:18:38;;;;;;;;;;;;;;;21.79;59.33;97325.42;109916;1250;72389;-72
2022/06/13 06:21:07;;;;;;;;;;;;;;;21.94;58.68;97324.64;109862;1250;67435;-68
2022/06/13 06:23:36;;;;;;;;;;;;;;;22.12;57.86;97324.07;109693;1250;70157;-74
2022/06/13 06:26:06;;;;;;;;;;;;;;;22.29;57.48;97320.71;109869;1250;60482;-72
2022/06/13 06:28:34;;;;;;;;;;;;;;;22.52;57.37;97318.50;109318;1250;658465;-73
2022/06/13 06:31:04;;;;;;;;;;;;;;;22.88;56.87;97315.25;109882;1250;72058;-72
2022/06/13 06:33:33;;;;;;;;;;;;;;;23.34;55.84;97313.55;109908;1250;68753;-70
2022/06/13 06:36:03;;;;;;;;;;;;;;;23.76;54.76;97318.56;109935;1250;68760;-73
2022/06/13 06:38:31;;;;;;;;;;;;;;;24.13;53.81;97320.29;110333;1253;60433;-72
2022/06/13 06:41:00;;;;;;;;;;;;;;;24.57;53.76;97322.52;109794;1251;60487;-72
2022/06/13 06:43:29;;;;;;;;;;;;;;;24.85;51.44;97322.20;109674;1252;72978;-73
2022/06/13 06:45:58;;;;;;;;;;;;;;;25.11;49.97;97320.84;109810;1252;68640;-73
2022/06/13 06:48:28;;;;;;;;;;;;;;;25.30;49.85;97327.02;109833;1252;69293;-71
2022/06/13 06:50:57;;;;;;;;;;;;;;;25.49;49.29;97323.37;109791;1252;60568;-73
2022/06/13 06:53:27;;;;;;;;;;;;;;;25.67;48.24;97322.34;109684;1253;60549;-73
2022/06/13 07:01:30;;;;;;;;;;;;;;;25.87;45.73;97323.56;109755;1251;69260;-73
2022/06/13 07:03:59;;;;;;;;;;;;;;;25.79;46.42;97320.82;109731;1251;60551;-69
2022/06/13 07:06:29;;;;;;;;;;;;;;;26.04;45.44;97327.80;109808;1251;60445;-72
2022/06/13 07:08:58;;;;;;;;;;;;;;;26.23;44.38;97320.92;109648;1253;71905;-75
2022/06/13 07:14:14;;;;;;;;;;;;;;;26.55;44.84;97312.70;109828;1251;69482;-73
2022/06/13 07:16:43;;;;;;;;;;;;;;;26.72;45.12;97311.90;109829;1251;60580;-73
2022/06/13 07:19:12;;;;;;;;;;;;;;;26.94;43.67;97313.92;109828;1252;60567;-72
2022/06/13 07:21:40;;;;;;;;;;;;;;;26.97;42.71;97309.91;109710;1253;71658;-72
2022/06/13 07:24:10;;;;;;;;;;;;;;;27.07;43.48;97305.71;110304;1252;68471;-71
2022/06/13 07:26:39;;;;;;;;;;;;;;;27.33;42.62;97304.94;109815;1253;68844;-73
2022/06/13 07:29:07;;;;;;;;;;;;;;;27.47;41.90;97304.97;109811;1251;60568;-71
2022/06/13 07:31:44;;;;;;;;;;;;;;;27.48;41.96;97304.24;109824;1251;60499;-72
2022/06/13 07:34:14;;;;;;;;;;;;;;;27.76;41.62;97305.07;109728;1253;72360;-72
2022/06/13 07:36:49;;;;;;;;;;;;;;;27.96;41.38;97304.30;109711;1253;67437;-69
2022/06/13 07:39:18;;;;;;;;;;;;;;;28.06;40.73;97296.38;109774;1251;70119;-71
2022/06/13 07:41:46;;;;;;;;;;;;;;;28.10;41.68;97297.77;109779;1252;60555;-70
2022/06/13 07:44:17;;;;;;;;;;;;;;;28.18;40.46;97295.70;109662;1250;60508;-68
2022/06/13 07:46:46;;;;;;;;;;;;;;;28.14;40.67;97292.56;109833;1250;71850;-69
2022/06/13 07:49:15;;;;;;;;;;;;;;;28.39;40.12;97289.78;109829;1250;67854;-68
2022/06/13 07:51:46;;;;;;;;;;;;;;;28.62;39.60;97288.59;109869;1250;69426;-66
2022/06/13 07:54:15;;;;;;;;;;;;;;;28.78;38.77;97286.15;109872;1250;60496;-67
2022/06/13 07:56:45;;;;;;;;;;;;;;;28.50;38.58;97286.73;109940;1250;60504;-66
2022/06/13 07:59:27;;;;;;;;;;;;;;;28.05;39.11;97283.77;109901;1250;71606;-71
2022/06/13 08:01:58;;;;;;;;;;;;;;;28.01;40.37;97283.22;109807;1253;68668;-67
2022/06/13 08:04:28;;;;;;;;;;;;;;;28.39;38.92;97282.86;109838;1250;69231;-68
2022/06/13 08:07:17;;;;;;;;;;;;;;;28.53;38.59;97278.70;109718;1250;60495;-68
2022/06/13 08:09:45;;;;;;;;;;;;;;;28.63;38.24;97278.17;109972;1250;60525;-70
2022/06/13 08:12:17;;;;;;;;;;;;;;;28.96;37.96;97276.95;109920;1250;71628;-67
2022/06/13 08:14:47;;;;;;;;;;;;;;;29.27;38.76;97277.39;109864;1250;68445;-68
2022/06/13 08:17:17;;;;;;;;;;;;;;;29.65;38.09;97273.64;109733;1250;69516;-72
2022/06/13 08:19:47;;;;;;;;;;;;;;;29.87;37.07;97280.85;109890;1250;60550;-71
2022/06/13 08:22:16;;;;;;;;;;;;;;;30.03;35.56;97276.97;109892;1250;60560;-72
2022/06/13 08:24:45;;;;;;;;;;;;;;;29.85;35.29;97275.42;109765;1250;72325;-75
2022/06/13 08:27:14;;;;;;;;;;;;;;;29.49;36.50;97274.30;109894;1250;68759;-72
2022/06/13 08:29:43;;;;;;;;;;;;;;;29.87;35.45;97271.37;109820;1250;69306;-72
2022/06/13 08:32:14;;;;;;;;;;;;;;;30.02;35.22;97274.02;109908;1250;60580;-71
2022/06/13 08:34:43;;;;;;;;;;;;;;;29.95;35.63;97277.13;109946;1250;61169;-71
2022/06/13 08:37:11;;;;;;;;;;;;;;;30.15;35.86;97276.16;109845;1250;72539;-70
2022/06/13 08:39:40;;;;;;;;;;;;;;;29.68;35.19;97272.38;109876;1250;68046;-70
2022/06/13 08:42:17;;;;;;;;;;;;;;;29.18;36.70;97267.88;109905;1250;69454;-72
2022/06/13 08:44:52;;;;;;;;;;;;;;;29.59;37.08;97268.96;109927;1250;60563;-72
2022/06/13 08:47:41;;;;;;;;;;;;;;;29.97;36.82;97262.78;109718;1251;60432;-73
2022/06/13 08:50:19;;;;;;;;;;;;;;;30.43;35.63;97260.88;109884;1250;71404;-69
2022/06/13 08:52:52;;;;;;;;;;;;;;;30.28;35.11;97256.94;109828;1251;68721;-70
2022/06/13 08:55:25;;;;;;;;;;;;;;;29.68;35.71;97253.45;109884;1250;68905;-74
2022/06/13 08:58:06;;;;;;;;;;;;;;;29.37;36.66;97254.05;109950;1253;60532;-72
2022/06/13 09:00:35;;;;;;;;;;;;;;;29.48;36.51;97254.36;109861;1250;60497;-73
2022/06/13 09:03:09;;;;;;;;;;;;;;;29.96;36.30;97253.54;109806;1250;72361;-73
2022/06/13 09:05:50;;;;;;;;;;;;;;;30.51;34.83;97248.14;109752;1251;67879;-70
2022/06/13 09:08:57;;;;;;;;;;;;;;;30.75;34.66;97248.23;109906;1250;69487;-74
2022/06/13 09:11:26;;;;;;;;;;;;;;;30.89;34.09;97241.65;109508;1251;60624;-72
2022/06/13 09:14:02;;;;;;;;;;;;;;;30.19;34.51;97245.56;109886;1250;60485;-70
2022/06/13 09:16:33;;;;;;;;;;;;;;;30.12;34.75;97247.79;109654;1252;71675;-74
2022/06/13 09:19:07;;;;;;;;;;;;;;;30.13;34.99;97242.42;109862;1250;67792;-71
2022/06/13 09:22:04;;;;;;;;;;;;;;;30.42;34.92;97236.93;109700;1253;68521;-69
2022/06/13 09:24:39;;;;;;;;;;;;;;;30.69;34.37;97235.73;109758;1253;60975;-71
2022/06/13 09:27:18;;;;;;;;;;;;;;;30.55;34.39;97233.39;109897;1250;60565;-70
2022/06/13 09:29:52;;;;;;;;;;;;;;;30.47;33.90;97233.72;109828;1250;72342;-71
2022/06/13 09:32:27;;;;;;;;;;;;;;;30.05;33.70;97234.06;109904;1250;68416;-70
2022/06/13 09:35:00;;;;;;;;;;;;;;;29.57;34.24;97230.78;109680;1253;69010;-71
2022/06/13 09:37:34;;;;;;;;;;;;;;;29.75;34.61;97220.67;109899;1250;60526;-69
2022/06/13 09:40:03;;;;;;;;;;;;;;;30.40;33.72;97223.61;109905;1250;60515;-72
2022/06/13 09:42:54;;;;;;;;;;;;;;;30.80;33.77;97222.45;109871;1250;72285;-70
2022/06/13 09:45:39;;;;;;;;;;;;;;;30.70;34.05;97218.92;110279;1251;68431;-69
2022/06/13 09:48:29;;;;;;;;;;;;;;;30.48;33.77;97219.66;109806;1250;68707;-71
2022/06/13 09:50:58;;;;;;;;;;;;;;;30.94;32.86;97215.38;109726;1253;60511;-67
2022/06/13 09:53:26;;;;;;;;;;;;;;;31.02;32.62;97215.51;109680;1253;60566;-71
2022/06/13 09:55:59;;;;;;;;;;;;;;;30.35;33.72;97217.38;109719;1251;72519;-68
2022/06/13 09:59:03;;;;;;;;;;;;;;;30.12;34.89;97214.89;109907;1250;68423;-70
2022/06/13 10:01:37;;;;;;;;;;;;;;;29.84;34.63;97213.63;109232;1257;69480;-71
2022/06/13 10:04:11;;;;;;;;;;;;;;;29.18;36.03;97212.42;109276;1257;60581;-69
2022/06/13 10:06:43;;;;;;;;;;;;;;;28.93;36.11;97205.36;109272;1258;60561;-67
2022/06/13 10:09:20;;;;;;;;;;;;;;;28.89;37.03;97205.88;109274;1257;70604;-66
2022/06/13 10:12:07;;;;;;;;;;;;;;;29.08;37.42;97200.20;109188;1259;67919;-72
2022/06/13 10:14:41;;;;;;;;;;;;;;;29.19;37.29;97196.67;109270;1257;68835;-68
2022/06/13 10:17:28;;;;;;;;;;;;;;;29.59;36.07;97192.02;109266;1257;60583;-65
2022/06/13 10:20:11;;;;;;;;;;;;;;;29.82;35.77;97185.06;109285;1257;60573;-66
2022/06/13 10:23:15;;;;;;;;;;;;;;;30.12;34.72;97178.83;109247;1257;71597;-70
2022/06/13 10:25:45;;;;;;;;;;;;;;;30.21;34.75;97174.98;108325;1265;68617;-72
2022/06/13 10:28:33;;;;;;;;;;;;;;;30.10;35.04;97166.50;108989;1261;68827;-72
2022/06/13 10:31:08;;;;;;;;;;;;;;;30.12;35.74;97167.30;109271;1257;60693;-71
2022/06/13 10:33:45;;;;;;;;;;;;;;;30.11;35.49;97162.38;109617;1257;60545;-70
2022/06/13 10:36:23;;;;;;;;;;;;;;;29.96;35.35;97162.46;109649;1251;72490;-71
2022/06/13 10:38:58;;;;;;;;;;;;;;;29.93;35.28;97155.10;109676;1253;68665;-70
2022/06/13 10:41:28;;;;;;;;;;;;;;;29.88;35.58;97150.80;109682;1253;69546;-70
2022/06/13 10:43:58;;;;;;;;;;;;;;;29.94;35.41;97150.30;109893;1250;60497;-70
2022/06/13 10:46:27;;;;;;;;;;;;;;;30.01;34.68;97147.26;109743;1250;60502;-73
2022/06/13 10:48:59;;;;;;;;;;;;;;;30.13;34.73;97148.61;109897;1251;72425;-69
2022/06/13 10:51:28;;;;;;;;;;;;;;;30.12;34.49;97146.02;109679;1253;67886;-70
2022/06/13 10:54:07;;;;;;;;;;;;;;;30.16;34.18;97132.67;109869;1251;69492;-70
2022/06/13 10:56:44;;;;;;;;;;;;;;;30.22;34.03;97129.39;109915;1250;60567;-70
2022/06/13 10:59:34;;;;;;;;;;;;;;;30.14;34.44;97126.71;109905;1251;60411;-70
2022/06/13 11:02:17;;;;;;;;;;;;;;;29.85;34.63;97125.14;109799;1251;71849;-69
2022/06/13 11:05:01;;;;;;;;;;;;;;;29.46;35.49;97126.13;109870;1251;68566;-68
2022/06/13 11:07:32;;;;;;;;;;;;;;;28.52;38.79;97120.39;109939;1250;69558;-67
2022/06/13 11:10:01;;;;;;;;;;;;;;;28.37;39.64;97115.49;109794;1251;60566;-70
2022/06/13 11:12:36;;;;;;;;;;;;;;;28.62;39.48;97110.62;109895;1250;60451;-69
2022/06/13 11:23:53;;;;;;;;;;;;;;;29.83;36.55;97099.02;109819;1253;60563;-70
2022/06/13 11:29:17;;;;;;;;;;;;;;;29.95;35.36;97092.35;109827;1251;71738;-71
2022/06/13 11:31:56;;;;;;;;;;;;;;;30.43;35.13;97089.34;109838;1250;68068;-65
2022/06/13 11:34:29;;;;;;;;;;;;;;;30.46;34.99;97086.14;109760;1251;68463;-70
2022/06/13 11:37:13;;;;;;;;;;;;;;;30.44;34.35;97085.91;109624;1253;60572;-70
2022/06/13 11:39:44;;;;;;;;;;;;;;;30.54;33.71;97084.81;109741;1253;60522;-69
2022/06/13 11:42:26;;;;;;;;;;;;;;;30.65;34.21;97081.31;109878;1250;71583;-70
2022/06/13 11:45:03;;;;;;;;;;;;;;;30.61;34.11;97075.53;109834;1253;67768;-69
2022/06/13 11:47:45;;;;;;;;;;;;;;;30.48;33.85;97077.34;109701;1253;68686;-66
2022/06/13 11:50:25;;;;;;;;;;;;;;;30.34;34.39;97079.45;109728;1253;60567;-70
2022/06/13 11:55:52;;;;;;;;;;;;;;;29.74;36.36;97073.58;109798;1251;71671;-67
2022/06/13 11:58:24;;;;;;;;;;;;;;;29.63;35.87;97069.40;109859;1251;68578;-67
2022/06/13 12:00:54;;;;;;;;;;;;;;;30.01;36.61;97063.92;109696;1251;68636;-70
2022/06/13 12:03:24;;;;;;;;;;;;;;;30.39;35.25;97064.85;109918;1250;60564;-67
2022/06/13 12:05:59;;;;;;;;;;;;;;;30.50;34.65;97062.37;110164;1251;60473;-64
2022/06/13 12:08:29;;;;;;;;;;;;;;;30.62;34.63;97059.73;109859;1251;71582;-69
2022/06/13 12:11:01;;;;;;;;;;;;;;;30.44;34.73;97055.91;109816;1253;68277;-68
2022/06/13 12:13:32;;;;;;;;;;;;;;;30.72;34.16;97054.93;109704;1251;69280;-67
2022/06/13 12:16:08;;;;;;;;;;;;;;;30.82;33.31;97058.60;109870;1251;60479;-66
2022/06/13 12:18:42;;;;;;;;;;;;;;;30.70;32.67;97054.42;109867;1250;60488;-66
2022/06/13 12:21:17;;;;;;;;;;;;;;;30.67;33.25;97053.66;109866;1251;71759;-67
2022/06/13 12:23:48;;;;;;;;;;;;;;;30.64;32.60;97059.89;109868;1251;67865;-71
2022/06/13 12:26:17;;;;;;;;;;;;;;;30.38;33.52;97054.91;109688;1253;68690;-66
2022/06/13 12:28:46;;;;;;;;;;;;;;;29.87;33.77;97048.29;109921;1250;60584;-68
2022/06/13 12:31:24;;;;;;;;;;;;;;;30.03;34.09;97046.73;109961;1251;60487;-73
2022/06/13 12:34:11;;;;;;;;;;;;;;;30.64;33.66;97048.83;109911;1251;72365;-66
2022/06/13 12:36:46;;;;;;;;;;;;;;;31.05;31.91;97043.95;109827;1250;68408;-69
2022/06/13 12:39:53;;;;;;;;;;;;;;;31.27;30.12;97040.50;109821;1251;68884;-72
2022/06/13 12:42:39;;;;;;;;;;;;;;;30.51;31.71;97039.89;109341;1257;60510;-69
2022/06/13 12:45:10;;;;;;;;;;;;;;;30.44;31.32;97037.22;109303;1257;60498;-72
2022/06/13 12:48:00;;;;;;;;;;;;;;;29.92;31.55;97043.46;109632;1253;72509;-70
2022/06/13 12:50:31;;;;;;;;;;;;;;;30.07;31.66;97039.73;110173;1251;68720;-67
2022/06/13 12:53:14;;;;;;;;;;;;;;;30.37;31.03;97039.48;110021;1251;68626;-70
2022/06/13 12:56:02;;;;;;;;;;;;;;;30.34;28.76;97042.32;109880;1250;60577;-72
2022/06/13 12:58:49;;;;;;;;;;;;;;;30.70;29.22;97040.40;109870;1251;60516;-70
2022/06/13 13:01:21;;;;;;;;;;;;;;;30.57;28.56;97044.89;109885;1251;70620;-71
2022/06/13 13:03:59;;;;;;;;;;;;;;;29.85;29.88;97033.59;109874;1251;68755;-70
2022/06/13 13:06:47;;;;;;;;;;;;;;;30.17;29.33;97032.52;109893;1250;69577;-66
2022/06/13 13:09:15;;;;;;;;;;;;;;;30.00;28.87;97027.75;109866;1251;60564;-71
2022/06/13 13:11:51;;;;;;;;;;;;;;;30.05;29.49;97027.26;109793;1251;60572;-71
2022/06/13 13:14:39;;;;;;;;;;;;;;;29.93;29.95;97024.20;109766;1254;72009;-69
2022/06/13 13:17:08;;;;;;;;;;;;;;;29.76;29.92;97018.35;109828;1251;67938;-69
2022/06/13 13:19:49;;;;;;;;;;;;;;;29.27;30.35;97015.81;109805;1251;69479;-70
2022/06/13 13:22:26;;;;;;;;;;;;;;;28.72;31.61;97015.02;109918;1251;60571;-66
2022/06/13 13:25:06;;;;;;;;;;;;;;;28.37;33.16;97017.33;109955;1250;60512;-69
2022/06/13 13:27:55;;;;;;;;;;;;;;;28.33;32.89;97016.82;109885;1251;72516;-69
2022/06/13 13:30:33;;;;;;;;;;;;;;;28.58;32.66;97008.14;109891;1251;68630;-69
2022/06/13 13:33:20;;;;;;;;;;;;;;;28.62;33.33;97007.08;109912;1251;68804;-72
2022/06/13 13:36:01;;;;;;;;;;;;;;;28.87;33.10;97000.05;110184;1251;60479;-71
2022/06/13 13:38:35;;;;;;;;;;;;;;;28.99;33.32;96998.39;109947;1251;60443;-70
2022/06/13 13:41:09;;;;;;;;;;;;;;;29.07;32.52;97000.80;109845;1251;72382;-71
2022/06/13 13:43:37;;;;;;;;;;;;;;;29.10;32.65;96997.30;109880;1251;68131;-70